Latest Weather Observations for Cape Otway

IDV60801

Issued at 9:35 pm EST Friday 1 August 2014 (issued every 30 minutes, with the page automatically refreshed every 10 minutes)

About weather observations | Map of weather stations | Latest weather observations for VIC | Other Formats
Station Details ID: 090015 Name: CAPE OTWAY LIGHTHOUSE Lat: -38.86 Lon: 143.51 Height: 82.0 m
Data from the previous 72 hours. | See also: Recent months at Cape Otway
Date/Time
EST
Temp
°C
App
Temp
°C
Dew
Point
Rel
Hum
%
Delta-T
°C
Wind Press
QNH
hPa
Press
MSL
hPa
Rain
since 9 am
mm
Dir
 
Spd
km/h
Gust
km/h
Spd
kts
Gust
kts
01/09:30pm 9.7 0.9 -1.0 47 4.2 SSW 35 52 19 28 1020.4 - 0.8
01/09:06pm 9.6 0.9 -0.2 50 3.9 SSW 35 54 19 29 1019.8 - 0.8
01/09:05pm 9.6 0.9 -0.2 50 3.9 SSW 35 54 19 29 1019.8 - 0.8
01/09:00pm 9.4 0.4 0.2 52 3.7 SSW 37 54 20 29 1019.6 1019.7 0.8
01/08:30pm 9.7 0.2 -0.7 48 4.1 SSW 39 57 21 31 1019.1 - 0.8
01/08:09pm 8.9 -1.4 -0.8 50 3.8 SSW 43 61 23 33 1018.3 - 0.8
01/08:08pm 8.9 -1.4 -0.8 50 3.8 SSW 43 61 23 33 1018.3 - 0.8
01/08:00pm 9.6 -0.3 -0.8 48 4.1 SSW 41 56 22 30 1018.5 - 0.8
01/07:31pm 9.9 -0.9 -0.4 48 4.1 SSW 46 65 25 35 1017.6 - 0.8
01/07:30pm 9.9 -1.3 -0.7 47 4.2 SSW 48 65 26 35 1017.5 - 0.8
01/07:00pm 9.7 -2.0 -1.3 46 4.3 SSW 50 63 27 34 1016.9 - 0.8
01/06:30pm 9.7 -0.3 0.9 54 3.6 SSW 43 61 23 33 1016.1 - 0.8
01/06:00pm 9.9 -0.7 -1.7 44 4.5 SSW 44 63 24 34 1015.2 1015.4 0.8
01/05:30pm 9.7 -0.3 1.3 56 3.5 SSW 43 61 23 33 1014.3 - 0.8
01/05:13pm 9.4 -0.7 0.5 54 3.6 SSW 43 61 23 33 1013.9 - 0.8
01/05:00pm 9.4 -2.1 -0.4 50 3.9 SW 50 69 27 37 1013.5 - 0.8
01/04:32pm 9.1 -1.7 -0.5 51 3.8 SSW 46 65 25 35 1012.8 - 0.8
01/04:31pm 9.1 -1.7 -0.5 51 3.8 SSW 46 65 25 35 1012.8 - 0.8
01/04:30pm 9.2 -2.0 -0.4 51 3.8 SW 48 65 26 35 1012.6 - 0.8
01/04:00pm 8.3 0.7 2.6 67 2.4 SSW 32 50 17 27 1011.8 - 0.8
01/03:44pm 7.9 -2.1 2.4 68 2.3 SSW 44 63 24 34 1010.9 - 0.8
01/03:42pm 7.9 -2.1 2.4 68 2.3 SSW 44 63 24 34 1010.7 - 0.8
01/03:30pm 9.4 -1.4 1.8 59 3.2 SSW 48 59 26 32 1010.7 - 0.8
01/03:05pm 8.7 -2.6 1.1 59 3.1 SSW 50 69 27 37 1010.0 - 0.8
01/03:04pm 8.7 -2.6 1.1 59 3.1 SSW 50 69 27 37 1010.0 - 0.8
01/03:00pm 8.6 -3.2 0.7 57 3.2 SSW 52 69 28 37 1009.9 1010.0 0.8
01/02:32pm 8.2 -3.2 3.1 70 2.2 SSW 52 70 28 38 1008.5 - 0.8
01/02:31pm 8.2 -3.2 3.1 70 2.2 SSW 52 70 28 38 1008.5 - 0.8
01/02:30pm 8.4 -3.3 3.6 72 2.1 SW 54 70 29 38 1008.6 - 0.8
01/02:00pm 8.8 -2.6 0.4 55 3.4 SSW 50 74 27 40 1008.2 - 0.8
01/01:30pm 8.3 -2.2 3.4 71 2.1 SW 48 69 26 37 1007.5 - 0.8
01/01:04pm 9.3 -2.0 1.4 58 3.3 SW 50 69 27 37 1006.7 - 0.6
01/01:03pm 9.3 -2.0 1.4 58 3.3 SW 50 69 27 37 1006.7 - 0.6
01/01:00pm 9.8 -1.8 1.4 56 3.5 SW 52 67 28 36 1006.6 - 0.6
01/12:30pm 7.7 -4.4 3.0 72 2.0 SW 56 82 30 44 1006.4 - 0.6
01/12:00pm 9.6 -2.9 0.6 53 3.7 SW 56 74 30 40 1005.5 1005.6 0.4
01/11:31am 9.8 -2.2 1.7 57 3.4 SW 54 72 29 39 1004.7 - 0.4
01/11:30am 9.7 -2.7 1.3 56 3.5 SW 56 72 30 39 1004.7 - 0.4
01/11:00am 8.6 -1.8 1.9 63 2.8 SW 46 85 25 46 1004.0 - 0.4
01/10:51am 8.3 -2.1 1.8 63 2.7 SW 46 85 25 46 1003.8 - 0.4
01/10:49am 9.8 -0.1 1.4 56 3.5 SW 43 76 23 41 1003.7 - 0.2
01/10:30am 9.2 -0.3 1.8 60 3.1 SSW 41 59 22 32 1003.6 - 0.2
01/10:00am 8.8 -2.5 1.3 59 3.1 SSW 50 70 27 38 1002.3 - 0.2
01/09:30am 7.4 -2.5 4.9 84 1.1 SSW 46 69 25 37 1001.1 - 0.2
01/09:28am 7.2 -2.8 4.5 83 1.2 SW 46 69 25 37 1001.1 - 0.2
01/09:27am 7.2 -3.5 4.5 83 1.2 SSW 50 70 27 38 1001.1 - 0.2
01/09:26am 7.1 -2.8 4.6 84 1.1 SSW 46 76 25 41 1001.0 - 0.2
01/09:24am 6.9 -2.5 4.6 85 1.0 SW 43 52 23 28 1001.1 - 0.2
01/09:14am 7.3 -2.2 5.1 86 1.0 W 44 65 24 35 1000.6 - 0.2
01/09:13am 7.3 -1.2 5.1 86 1.0 WSW 39 65 21 35 1000.6 - 0.2
01/09:00am 5.3 -2.2 3.6 89 0.7 NNW 32 46 17 25 999.7 999.8 15.6
01/08:32am 4.4 -4.1 2.9 90 0.6 NNW 37 56 20 30 999.1 - 15.2
01/08:31am 4.4 -4.1 2.9 90 0.6 NNW 37 56 20 30 999.1 - 15.2
01/08:30am 4.4 -3.8 2.9 90 0.6 NNW 35 52 19 28 999.2 - 15.2
01/08:00am 4.5 -3.7 2.5 87 0.8 NNW 35 61 19 33 999.1 - 14.4
01/07:31am 4.5 -4.2 2.0 84 1.0 N 37 59 20 32 998.3 - 14.2
01/07:30am 4.4 -3.9 2.2 86 0.9 N 35 52 19 28 998.3 - 14.2
01/07:00am 4.2 -4.1 2.0 85 0.9 NNW 35 54 19 29 997.9 - 14.2
01/06:30am 4.8 -6.4 2.1 83 1.1 NNW 50 72 27 39 996.7 - 14.2
01/06:29am 4.7 -7.2 2.2 84 1.0 NNW 54 72 29 39 996.6 - 14.2
01/06:17am 5.1 -3.9 2.4 83 1.1 NW 39 59 21 32 997.5 - 14.2
01/06:15am 4.9 -3.4 2.2 83 1.1 NW 35 50 19 27 997.6 - 14.2
01/06:00am 4.8 -3.8 2.4 84 1.0 NNW 37 56 20 30 997.0 997.1 14.2
01/05:31am 5.0 -3.6 2.6 84 1.0 NNW 37 56 20 30 997.4 - 14.2
01/05:30am 5.0 -3.6 2.6 84 1.0 NNW 37 54 20 29 997.4 - 14.2
01/05:19am 5.1 -1.7 2.9 86 0.9 NNW 28 52 15 28 997.8 - 14.0
01/05:18am 5.1 -1.7 2.9 86 0.9 NNW 28 52 15 28 997.8 - 14.0
01/05:00am 4.6 -1.5 2.9 89 0.7 NNW 24 35 13 19 998.3 - 14.0
01/04:30am 4.8 -2.8 2.6 86 0.9 NNW 32 50 17 27 997.8 - 13.0
01/04:16am 4.7 -2.5 2.8 87 0.8 NNW 30 48 16 26 997.8 - 13.0
01/04:15am 4.7 -2.5 2.8 87 0.8 NNW 30 48 16 26 997.8 - 13.0
01/04:00am 5.0 -2.2 2.8 86 0.9 NNW 30 46 16 25 998.2 - 12.6
01/03:30am 5.5 -2.3 2.9 83 1.1 NW 33 54 18 29 998.1 - 12.2
01/03:00am 5.4 -2.8 2.7 83 1.1 NNW 35 56 19 30 998.6 998.7 12.0
01/02:30am 5.9 -2.3 2.5 79 1.4 NNW 35 56 19 30 998.2 - 11.6
01/02:00am 6.2 -1.8 1.5 72 1.9 NNW 33 52 18 28 998.2 - 11.6
01/01:44am 5.7 -1.8 1.5 74 1.7 NNW 30 50 16 27 998.3 - 11.6
01/01:43am 5.7 -1.8 1.5 74 1.7 NNW 30 50 16 27 998.3 - 11.6
01/01:30am 5.6 -1.8 1.6 75 1.6 NNW 30 46 16 25 998.4 - 11.6
01/01:07am 6.4 -1.1 1.2 69 2.1 NW 30 54 16 29 998.7 - 11.4
01/01:06am 6.4 -1.1 1.2 69 2.1 NW 30 54 16 29 998.7 - 11.4
01/01:00am 6.5 -1.4 1.0 68 2.2 NNW 32 46 17 25 998.6 - 11.4
01/12:38am 6.0 -0.9 2.4 78 1.5 NW 28 46 15 25 998.4 - 11.4
01/12:37am 6.0 -0.9 2.4 78 1.5 NW 28 46 15 25 998.4 - 11.4
01/12:30am 6.3 -1.4 2.5 77 1.6 NW 32 46 17 25 998.4 - 11.4
01/12:00am 6.0 -2.0 1.8 74 1.7 NNW 33 52 18 28 998.2 998.3 11.4
 
Date/Time
EST
Temp
°C
App
Temp
°C
Dew
Point
Rel
Hum
%
Delta-T
°C
Wind Press
QNH
hPa
Press
MSL
hPa
Rain
since 9 am
mm
Dir
 
Spd
km/h
Gust
km/h
Spd
kts
Gust
kts
31/11:30pm 6.8 -0.5 2.5 74 1.8 NNW 30 50 16 27 998.5 - 11.4
31/11:00pm 7.8 -0.5 2.1 67 2.4 NW 35 59 19 32 998.3 - 11.4
31/10:30pm 7.7 -0.1 2.8 71 2.1 NW 33 56 18 30 998.0 - 11.4
31/10:16pm 8.5 -0.4 2.9 68 2.4 NNW 39 63 21 34 997.8 - 11.4
31/10:15pm 8.5 -0.4 2.9 68 2.4 NNW 39 69 21 37 997.8 - 11.4
31/10:00pm 10.0 -0.1 1.5 55 3.6 WNW 44 67 24 36 997.4 - 11.4
31/09:30pm 9.2 -0.9 1.6 59 3.2 W 44 65 24 35 997.4 - 11.4
31/09:00pm 7.4 -1.9 3.2 75 1.8 WNW 41 65 22 35 997.6 997.7 11.4
31/08:30pm 8.0 -3.0 0.6 59 3.0 WNW 48 76 26 41 997.2 - 10.8
31/08:00pm 9.1 -2.8 -0.4 51 3.8 WNW 52 74 28 40 996.6 - 9.8
31/07:30pm 10.0 0.4 1.2 54 3.7 WNW 41 69 22 37 996.2 - 9.8
31/07:00pm 9.4 -1.8 1.8 59 3.2 WNW 50 70 27 38 996.2 - 9.8
31/06:30pm 9.9 -0.8 2.8 61 3.1 WNW 48 69 26 37 995.6 - 9.8
31/06:03pm 9.3 -2.8 4.1 70 2.3 W 57 78 31 42 995.2 - 9.8
31/06:00pm 9.3 -2.2 4.6 72 2.1 W 54 65 29 35 995.3 995.4 9.8
31/05:30pm 8.5 -0.4 2.9 68 2.4 NW 39 59 21 32 994.8 - 9.6
31/05:00pm 8.4 -0.9 3.1 69 2.3 NW 41 63 22 34 994.6 - 9.6
31/04:40pm 9.5 -0.8 2.8 63 2.9 WNW 46 69 25 37 994.2 - 9.6
31/04:39pm 9.5 -1.2 2.8 63 2.9 WNW 48 91 26 49 994.2 - 9.6
31/04:33pm 9.9 -4.6 1.6 56 3.5 WNW 67 91 36 49 993.6 - 9.6
31/04:30pm 9.2 -0.6 3.2 66 2.6 NW 44 72 24 39 993.7 - 9.6
31/04:14pm 9.4 -0.7 1.8 59 3.2 WNW 44 65 24 35 994.3 - 9.4
31/04:13pm 9.3 -0.5 2.0 60 3.1 WNW 43 56 23 30 994.2 - 9.4
31/04:12pm 9.3 -0.5 2.0 60 3.1 WNW 43 83 23 45 994.2 - 9.4
31/04:00pm 9.5 -4.2 1.7 58 3.3 WNW 63 93 34 50 994.1 - 9.4
31/03:30pm 9.2 -3.2 2.7 64 2.8 WNW 57 80 31 43 993.7 - 9.4
31/03:00pm 9.1 -2.8 4.4 72 2.1 WNW 56 80 30 43 993.8 993.8 9.0
31/02:30pm 9.0 -2.7 5.5 79 1.6 WNW 56 78 30 42 993.6 - 8.8
31/02:00pm 9.1 -4.2 3.7 69 2.4 WNW 63 93 34 50 993.3 - 8.2
31/01:54pm 8.6 -3.5 3.3 69 2.3 WNW 56 87 30 47 993.1 - 8.2
31/01:48pm 8.4 -2.0 4.4 76 1.8 WNW 48 69 26 37 993.3 - 8.2
31/01:47pm 8.4 -2.0 4.4 76 1.8 WNW 48 109 26 59 993.3 - 8.2
31/01:40pm 8.7 -5.5 5.2 79 1.6 W 69 109 37 59 993.2 - 8.2
31/01:30pm 8.5 -5.8 4.5 76 1.8 WNW 69 91 37 49 992.9 - 8.0
31/01:00pm 8.5 -5.7 6.1 85 1.1 WNW 70 93 38 50 992.6 - 6.8
31/12:52pm 8.8 -3.5 7.1 89 0.8 WNW 61 91 33 49 992.2 - 6.6
31/12:36pm 9.3 -1.5 7.6 89 0.8 WNW 54 83 29 45 992.5 - 5.8
31/12:30pm 10.1 1.4 8.3 88 0.9 WNW 44 65 24 35 992.4 - 4.8
31/12:26pm 9.9 1.3 8.3 90 0.8 WNW 43 61 23 33 992.4 - 4.6
31/12:24pm 9.9 1.3 8.1 88 0.9 WNW 43 57 23 31 992.4 - 4.6
31/12:00pm 10.2 -1.9 7.7 84 1.2 WNW 61 83 33 45 992.2 992.2 3.8
31/11:55am 10.1 -2.0 7.8 86 1.1 WNW 61 80 33 43 992.3 - 3.6
31/11:54am 10.1 -1.2 7.8 86 1.1 WNW 57 80 31 43 992.3 - 3.6
31/11:53am 9.9 -2.9 7.9 87 1.0 WNW 65 80 35 43 992.3 - 3.4
31/11:30am 14.4 4.7 5.9 56 4.1 NNW 46 89 25 48 991.0 - 0.0
31/11:00am - - - - - NNW 48 72 26 39 - - 0.0
31/10:30am 14.6 4.2 5.9 56 4.2 NNW 50 76 27 41 991.7 - 0.0
31/10:00am 14.4 4.7 5.9 56 4.1 NNW 46 78 25 42 992.2 - 0.0
31/09:30am 13.9 4.8 6.0 59 3.8 NNW 43 67 23 36 992.9 - 0.0
31/09:00am 13.7 4.6 5.8 59 3.8 NNW 43 70 23 38 993.9 993.9 0.6
31/08:30am 13.6 5.3 5.9 59 3.7 NNW 39 57 21 31 994.2 - 0.6
31/08:00am 13.5 5.6 6.0 60 3.6 NNW 37 61 20 33 994.8 - 0.6
31/07:30am 13.6 5.3 5.9 59 3.7 NNW 39 57 21 31 995.5 - 0.6
31/07:00am 13.9 5.5 5.8 58 3.9 NNW 39 65 21 35 995.5 - 0.6
31/06:30am 14.0 4.8 5.6 57 4.0 NNW 43 69 23 37 996.0 - 0.6
31/06:00am 13.9 5.6 6.0 59 3.8 NNW 39 72 21 39 996.6 996.7 0.6
31/05:30am 13.8 4.8 6.4 61 3.6 NNW 43 63 23 34 996.9 - 0.6
31/05:00am 14.3 6.8 6.5 59 3.8 NNW 35 65 19 35 997.3 - 0.6
31/04:30am 14.4 6.1 6.2 58 3.9 NNW 39 63 21 34 997.7 - 0.6
31/04:00am 14.5 5.9 6.5 58 3.9 NNW 41 69 22 37 998.3 - 0.6
31/03:30am 14.5 6.3 6.5 58 3.9 NNW 39 65 21 35 999.0 - 0.6
31/03:00am 14.4 6.2 6.4 58 3.9 NNW 39 70 21 38 999.4 999.5 0.6
31/02:30am 14.3 4.4 6.8 60 3.7 NNW 48 70 26 38 999.8 - 0.6
31/02:00am 13.8 4.4 7.1 64 3.3 NNW 46 78 25 42 1000.3 - 0.6
31/01:30am 13.6 5.0 8.0 69 2.8 NNW 43 69 23 37 1001.0 - 0.6
31/01:00am 13.3 5.9 8.5 72 2.4 NNW 37 65 20 35 1001.8 - 0.6
31/12:30am 13.8 5.5 7.8 67 3.0 NNW 41 61 22 33 1002.5 - 0.6
31/12:00am 14.0 5.1 7.8 66 3.1 NNW 44 67 24 36 1003.1 1003.1 0.6
 
Date/Time
EST
Temp
°C
App
Temp
°C
Dew
Point
Rel
Hum
%
Delta-T
°C
Wind Press
QNH
hPa
Press
MSL
hPa
Rain
since 9 am
mm
Dir
 
Spd
km/h
Gust
km/h
Spd
kts
Gust
kts
30/11:30pm 13.3 5.9 8.3 72 2.5 NNW 37 59 20 32 1003.2 - 0.6
30/11:05pm 13.1 6.6 8.8 75 2.2 NNW 33 72 18 39 1003.5 - 0.6
30/11:04pm 13.1 6.6 8.8 75 2.2 NNW 33 72 18 39 1003.5 - 0.6
30/11:01pm 12.8 7.0 9.3 79 1.8 NNW 30 52 16 28 1003.7 - 0.6
30/11:00pm 12.8 7.0 9.3 79 1.8 NNW 30 46 16 25 1003.8 - 0.6
30/10:30pm 14.0 4.8 7.8 66 3.1 NNW 46 82 25 44 1003.9 - 0.6
30/10:00pm 13.8 5.6 8.0 68 2.9 NNW 41 67 22 36 1004.2 - 0.6
30/09:30pm 13.7 6.6 7.9 68 2.9 NNW 35 65 19 35 1004.2 - 0.6
30/09:00pm 14.0 6.8 7.6 65 3.2 NNW 35 69 19 37 1004.5 1004.5 0.6
30/08:30pm 14.0 6.8 7.6 65 3.2 NNW 35 57 19 31 1005.0 - 0.6
30/08:00pm 13.9 6.0 7.7 66 3.1 NNW 39 67 21 36 1005.2 - 0.6
30/07:30pm 14.2 6.7 7.8 65 3.2 NNW 37 61 20 33 1005.4 - 0.6
30/07:00pm 14.0 6.9 8.2 68 2.9 NW 35 57 19 31 1005.6 - 0.6
30/06:30pm 13.9 7.6 9.0 72 2.5 NNW 32 50 17 27 1005.3 - 0.6
30/06:00pm 13.9 7.2 9.6 75 2.2 NW 35 57 19 31 1005.7 1005.8 0.6
30/05:30pm 14.0 8.3 9.8 76 2.2 NW 30 50 16 27 1005.7 - 0.6
30/05:00pm 14.7 7.9 9.1 69 2.9 NW 35 57 19 31 1005.6 - 0.6
30/04:30pm 14.6 8.4 10.0 74 2.4 NW 33 54 18 29 1005.7 - 0.6
30/04:01pm 14.7 8.6 10.3 75 2.3 NW 33 52 18 28 1005.9 - 0.6
30/04:00pm 14.8 8.3 10.5 75 2.3 NW 35 52 19 28 1005.9 - 0.6
30/03:30pm 14.6 6.9 10.2 75 2.3 WNW 41 61 22 33 1006.0 - 0.6
30/03:06pm 14.7 7.3 9.9 73 2.5 NW 39 57 21 31 1006.1 - 0.6
30/03:05pm 14.7 7.3 9.9 73 2.5 NW 39 57 21 31 1006.1 - 0.6
30/03:00pm 14.7 7.4 10.1 74 2.4 NW 39 54 21 29 1006.1 1006.2 0.6
30/02:30pm 14.8 6.2 10.2 74 2.4 WNW 46 72 25 39 1006.0 - 0.6
30/02:00pm 14.4 5.8 10.4 77 2.1 WNW 46 69 25 37 1006.0 - 0.6
30/01:30pm 13.4 5.6 11.1 86 1.2 NW 43 69 23 37 1006.3 - 0.6
30/01:19pm 13.8 6.5 11.6 86 1.2 WNW 41 78 22 42 1006.5 - 0.2
30/01:00pm 15.1 7.8 10.2 72 2.6 NW 39 65 21 35 1006.5 - 0.0
30/12:30pm 14.5 7.2 10.3 76 2.2 NW 39 63 21 34 1007.3 - 0.0
30/12:00pm 14.2 6.1 10.0 76 2.2 NW 43 61 23 33 1007.8 1007.9 0.0
30/11:30am 14.2 6.8 9.8 75 2.3 NW 39 63 21 34 1008.0 - 0.0
30/11:01am 14.1 7.1 9.9 76 2.2 NW 37 56 20 30 1008.3 - 0.0
30/11:00am 14.1 6.7 9.9 76 2.2 NW 39 56 21 30 1008.3 - 0.0
30/10:30am 14.1 7.0 9.7 75 2.3 NW 37 57 20 31 1008.3 - 0.0
30/10:00am 13.5 6.7 9.4 76 2.1 NW 35 57 19 31 1008.6 - 0.0
30/09:30am 13.3 6.5 9.4 77 2.0 NW 35 57 19 31 1008.6 - 0.0
30/09:00am 13.2 5.7 9.5 78 1.9 NW 39 57 21 31 1008.8 1008.9 3.4
30/08:30am 12.8 5.6 9.3 79 1.8 NW 37 57 20 31 1008.4 - 3.4
30/08:01am 12.4 5.6 9.2 81 1.6 NW 35 54 19 29 1008.5 - 3.4
30/08:00am 12.4 5.9 9.0 80 1.7 NW 33 52 18 28 1008.5 - 3.4
30/07:46am 12.2 6.0 9.4 83 1.4 NW 32 52 17 28 1008.6 - 3.4
30/07:41am 12.3 6.5 9.3 82 1.5 NW 30 48 16 26 1008.6 - 3.4
30/07:30am 12.3 6.0 9.1 81 1.6 NW 32 48 17 26 1008.5 - 3.4
30/07:01am 12.1 5.9 9.3 83 1.4 NW 32 50 17 27 1008.0 - 3.4
30/07:00am 12.0 5.8 9.4 84 1.3 NW 32 48 17 26 1008.0 - 3.4
30/06:30am 12.2 5.8 9.5 83 1.4 NW 33 52 18 28 1008.1 - 3.4
30/06:10am 12.0 5.6 9.4 84 1.3 NW 33 54 18 29 1008.0 - 3.4
30/06:09am 12.0 5.6 9.4 84 1.3 NW 33 54 18 29 1008.0 - 3.4
30/06:00am 11.9 5.5 9.3 84 1.3 NW 33 46 18 25 1008.0 1008.1 3.4
30/05:30am 12.0 5.2 9.2 83 1.4 NW 35 50 19 27 1008.0 - 3.4
30/05:00am 12.4 6.2 9.5 82 1.5 NW 32 54 17 29 1008.0 - 3.4
30/04:30am 13.4 4.3 8.4 72 2.5 WNW 46 67 25 36 1007.7 - 3.4
30/04:08am 13.1 6.0 9.4 78 1.9 WNW 37 59 20 32 1007.7 - 3.4
30/04:00am 13.2 6.4 9.1 76 2.1 WNW 35 54 19 29 1007.8 - 3.4
30/03:39am 13.3 5.7 9.2 76 2.1 WNW 39 57 21 31 1007.8 - 3.4
30/03:38am 13.3 5.7 9.2 76 2.1 WNW 39 57 21 31 1007.8 - 3.4
30/03:30am 13.3 4.9 9.0 75 2.2 WNW 43 57 23 31 1008.0 - 3.4
30/03:00am 12.9 3.5 8.9 76 2.0 WNW 48 74 26 40 1008.1 1008.2 3.4
30/02:30am 12.1 4.0 10.6 90 0.8 WNW 44 63 24 34 1008.3 - 3.4
30/02:00am 13.5 6.4 9.4 76 2.1 WNW 37 56 20 30 1008.2 - 3.2
30/01:30am 13.4 5.9 9.3 76 2.1 WNW 39 59 21 32 1008.1 - 3.2
30/01:00am 13.5 6.0 9.6 77 2.0 WNW 39 57 21 31 1008.0 - 3.2
30/12:30am 13.6 6.2 9.7 77 2.0 WNW 39 57 21 31 1007.9 - 3.2
30/12:00am 13.5 5.3 9.6 77 2.0 WNW 43 70 23 38 1007.6 1007.7 3.2
 
Date/Time
EST
Temp
°C
App
Temp
°C
Dew
Point
Rel
Hum
%
Delta-T
°C
Wind Press
QNH
hPa
Press
MSL
hPa
Rain
since 9 am
mm
Dir
 
Spd
km/h
Gust
km/h
Spd
kts
Gust
kts
29/11:30pm 13.4 5.5 9.3 76 2.1 WNW 41 61 22 33 1007.4 - 3.2
29/11:00pm 13.2 4.5 11.3 88 1.0 WNW 48 80 26 43 1007.2 - 3.2
29/10:42pm 13.4 6.5 11.5 88 1.0 WNW 39 82 21 44 1007.0 - 3.0
29/10:41pm 13.4 6.5 11.5 88 1.0 WNW 39 82 21 44 1007.0 - 3.0
29/10:30pm 13.7 6.5 11.8 88 1.0 WNW 41 61 22 33 1007.0 - 3.0
29/10:00pm 13.2 5.6 11.7 91 0.8 WNW 43 65 23 35 1006.9 - 3.0

Other Formats:

Comma delimited format used in spreadsheet applications
http://www.bom.gov.au/fwo/IDV60801/IDV60801.94842.axf

JavaScript Object Notation format (JSON) in row-major order
http://www.bom.gov.au/fwo/IDV60801/IDV60801.94842.json